createdAt,value
2022-12-20T00:04:19.579Z,14.30
2022-12-20T00:07:37.370Z,13.98
2022-12-20T00:10:30.581Z,14.60
2022-12-20T00:13:23.539Z,15.52
2022-12-20T00:15:51.392Z,14.00
2022-12-20T00:18:19.987Z,13.60
2022-12-20T00:20:47.955Z,15.10
2022-12-20T00:23:19.901Z,13.50
2022-12-20T00:25:47.826Z,13.50
2022-12-20T00:28:15.893Z,15.70
2022-12-20T00:30:43.830Z,8.00
2022-12-20T00:33:12.257Z,11.98
2022-12-20T00:36:31.409Z,13.40
2022-12-20T00:39:01.142Z,13.30
2022-12-20T00:41:31.862Z,14.18
2022-12-20T00:44:02.085Z,12.35
2022-12-20T00:46:32.143Z,13.27
2022-12-20T00:49:00.652Z,14.57
2022-12-20T00:51:30.338Z,13.20
2022-12-20T00:53:58.701Z,12.98
2022-12-20T00:56:26.795Z,14.57
2022-12-20T00:59:00.254Z,13.18
2022-12-20T01:01:31.566Z,14.43
2022-12-20T01:04:00.821Z,13.18
2022-12-20T01:11:10.285Z,14.23
2022-12-20T01:18:29.091Z,12.30
2022-12-20T01:21:05.661Z,12.90
2022-12-20T01:23:33.569Z,14.15
2022-12-20T01:26:05.151Z,13.93
2022-12-20T01:28:33.339Z,12.48
2022-12-20T01:31:01.512Z,12.87
2022-12-20T01:33:29.589Z,15.00
2022-12-20T01:36:00.184Z,15.00
2022-12-20T01:38:28.590Z,13.52
2022-12-20T01:40:57.875Z,16.92
2022-12-20T01:43:45.422Z,14.17
2022-12-20T01:46:13.674Z,14.25
2022-12-20T01:48:45.702Z,14.00
2022-12-20T01:51:14.479Z,14.77
2022-12-20T01:53:42.170Z,12.60
2022-12-20T01:56:11.434Z,13.33
2022-12-20T01:58:40.161Z,13.98
2022-12-20T02:10:18.099Z,10.77
2022-12-20T02:12:48.364Z,12.63
2022-12-20T02:23:54.564Z,11.68
2022-12-20T02:30:51.405Z,12.43
2022-12-20T02:33:22.553Z,13.55
2022-12-20T02:35:50.722Z,12.95
2022-12-20T02:38:37.066Z,14.85
2022-12-20T02:41:04.888Z,13.82
2022-12-20T02:43:53.339Z,12.67
2022-12-20T02:46:23.435Z,14.85
2022-12-20T02:48:54.711Z,13.13
2022-12-20T02:56:04.912Z,12.10
2022-12-20T02:58:55.457Z,13.10
2022-12-20T03:05:57.115Z,12.38
2022-12-20T03:08:25.875Z,13.90
2022-12-20T03:10:56.271Z,13.07
2022-12-20T03:14:39.759Z,13.23
2022-12-20T03:17:10.500Z,12.07
2022-12-20T03:19:39.231Z,13.73
2022-12-20T03:22:07.477Z,13.23
2022-12-20T03:24:37.176Z,14.88
2022-12-20T03:27:11.622Z,12.90
2022-12-20T03:29:39.792Z,14.65
2022-12-20T03:33:02.546Z,13.68
2022-12-20T03:35:30.854Z,12.85
2022-12-20T03:38:24.327Z,13.90
2022-12-20T03:40:53.624Z,12.77
2022-12-20T03:43:23.106Z,12.63
2022-12-20T03:45:51.469Z,13.20
2022-12-20T03:48:20.308Z,12.98
2022-12-20T03:50:54.877Z,11.18
2022-12-20T03:53:23.141Z,13.17
2022-12-20T03:55:52.097Z,13.23
2022-12-20T03:58:20.647Z,12.23
2022-12-20T04:00:48.448Z,13.18
2022-12-20T04:04:02.031Z,13.07
2022-12-20T04:15:26.385Z,12.20
2022-12-20T04:17:55.208Z,12.82
2022-12-20T04:20:23.514Z,12.45
2022-12-20T04:23:15.818Z,11.43
2022-12-20T04:25:43.932Z,12.13
2022-12-20T04:28:37.410Z,14.50
2022-12-20T04:31:07.034Z,14.38
2022-12-20T04:33:38.068Z,13.65
2022-12-20T04:45:03.140Z,13.38
2022-12-20T05:00:42.168Z,13.43
2022-12-20T05:03:58.052Z,13.98
2022-12-20T05:07:49.601Z,16.65
2022-12-20T05:10:19.614Z,16.48
2022-12-20T05:17:37.100Z,15.43
2022-12-20T05:20:08.020Z,14.15
2022-12-20T05:22:57.337Z,14.02
2022-12-20T05:28:37.673Z,16.53
2022-12-20T05:31:06.420Z,14.35
2022-12-20T05:39:27.295Z,12.48
2022-12-20T05:41:59.519Z,15.20
2022-12-20T05:44:29.230Z,13.77
2022-12-20T05:47:29.088Z,14.20
2022-12-20T05:50:06.082Z,14.60
2022-12-20T05:53:11.976Z,16.42
2022-12-20T05:55:54.638Z,15.68
2022-12-20T05:58:52.697Z,14.30
2022-12-20T06:06:42.386Z,14.15
2022-12-20T06:09:12.560Z,15.35
2022-12-20T06:12:09.910Z,17.48
2022-12-20T06:14:40.024Z,18.77
2022-12-20T06:17:12.575Z,16.75
2022-12-20T06:19:42.002Z,17.13
2022-12-20T06:22:14.013Z,14.35
2022-12-20T06:25:33.336Z,14.00
2022-12-20T06:32:47.009Z,14.07
2022-12-20T06:35:19.324Z,14.15
2022-12-20T06:37:49.298Z,15.23
2022-12-20T06:40:17.890Z,14.43
2022-12-20T06:47:34.730Z,15.88
2022-12-20T06:50:06.770Z,17.17
2022-12-20T07:01:43.060Z,16.27
2022-12-20T07:04:11.476Z,30.08
2022-12-20T07:06:40.194Z,20.40
2022-12-20T07:09:09.927Z,13.90
2022-12-20T07:11:39.201Z,16.77
2022-12-20T07:14:46.274Z,22.87
2022-12-20T07:17:15.185Z,62.28
2022-12-20T07:19:50.232Z,27.85
2022-12-20T07:24:13.834Z,19.10
2022-12-20T07:27:11.505Z,17.55
2022-12-20T07:29:41.270Z,18.33
2022-12-20T07:36:14.033Z,17.67
2022-12-20T07:38:43.351Z,18.08
2022-12-20T07:41:21.257Z,19.90
2022-12-20T07:43:49.958Z,18.37
2022-12-20T07:46:18.770Z,15.82
2022-12-20T07:49:16.985Z,18.83
2022-12-20T07:51:51.932Z,16.13
2022-12-20T07:55:13.003Z,20.98
2022-12-20T08:07:33.567Z,16.42
2022-12-20T08:10:02.135Z,14.27
2022-12-20T08:12:31.852Z,16.40
2022-12-20T08:15:05.753Z,17.40
2022-12-20T08:17:34.556Z,18.45
2022-12-20T08:20:02.783Z,24.73
2022-12-20T08:31:34.039Z,14.90
2022-12-20T08:34:02.295Z,17.48
2022-12-20T08:36:31.218Z,15.60
2022-12-20T08:43:57.168Z,19.42
2022-12-20T08:49:47.333Z,21.88
2022-12-20T08:52:19.243Z,15.32
2022-12-20T08:54:49.258Z,16.75
2022-12-20T09:06:37.680Z,14.00
2022-12-20T09:09:07.620Z,22.27
2022-12-20T09:11:36.299Z,23.58
2022-12-20T09:18:40.276Z,13.97
2022-12-20T09:21:10.707Z,14.68
2022-12-20T09:23:39.513Z,14.60
2022-12-20T09:26:13.120Z,13.60
2022-12-20T09:28:43.745Z,14.05
2022-12-20T09:44:35.859Z,12.55
2022-12-20T09:47:30.265Z,12.93
2022-12-20T09:50:36.745Z,13.63
2022-12-20T09:53:53.023Z,23.42
2022-12-20T09:56:31.364Z,20.08
2022-12-20T09:59:02.485Z,20.63
2022-12-20T10:01:38.810Z,14.77
2022-12-20T10:05:02.580Z,15.27
2022-12-20T10:16:57.418Z,13.95
2022-12-20T10:24:34.025Z,12.43
2022-12-20T10:27:39.137Z,13.98
2022-12-20T10:34:15.941Z,15.80
2022-12-20T10:37:13.501Z,14.40
2022-12-20T10:47:45.624Z,16.08
2022-12-20T10:50:52.532Z,14.65
2022-12-20T10:53:25.310Z,15.75
2022-12-20T10:55:55.950Z,15.60
2022-12-20T11:07:28.365Z,15.93
2022-12-20T11:10:25.810Z,14.98
2022-12-20T11:13:46.555Z,14.03
2022-12-20T11:16:34.491Z,16.40
2022-12-20T11:19:22.304Z,17.10
2022-12-20T11:26:28.299Z,14.25
2022-12-20T11:33:37.847Z,17.98
2022-12-20T11:40:39.656Z,19.33
2022-12-20T11:44:25.880Z,23.02
2022-12-20T11:47:36.824Z,19.13
2022-12-20T11:50:20.995Z,12.77
2022-12-20T11:52:59.431Z,15.18
2022-12-20T11:59:58.068Z,15.40
2022-12-20T12:08:01.677Z,14.90
2022-12-20T12:19:31.369Z,14.55
2022-12-20T12:23:13.820Z,18.53
2022-12-20T12:30:15.103Z,17.42
2022-12-20T12:37:50.250Z,17.08
2022-12-20T12:48:42.851Z,19.23
2022-12-20T12:52:03.524Z,20.25
2022-12-20T12:54:55.201Z,21.50
2022-12-20T12:57:24.289Z,21.03
2022-12-20T12:59:53.272Z,23.42
2022-12-20T13:11:55.533Z,19.80
2022-12-20T13:15:20.730Z,22.23
2022-12-20T13:18:55.357Z,25.17
2022-12-20T13:25:54.924Z,22.65
2022-12-20T13:33:25.103Z,20.03
2022-12-20T13:40:01.446Z,22.10
2022-12-20T13:46:11.636Z,23.17
2022-12-20T13:52:40.302Z,30.80
2022-12-20T13:55:38.885Z,27.75
2022-12-20T13:58:13.333Z,25.02
2022-12-20T14:00:44.028Z,25.27
2022-12-20T14:03:21.806Z,26.13
2022-12-20T14:09:40.119Z,24.70
2022-12-20T14:12:37.110Z,21.65
2022-12-20T14:20:15.686Z,20.73
2022-12-20T14:23:15.751Z,22.65
2022-12-20T14:25:52.387Z,20.20
2022-12-20T14:32:50.593Z,28.98
2022-12-20T14:35:22.214Z,28.30
2022-12-20T14:37:56.397Z,25.95
2022-12-20T14:40:25.261Z,25.08
2022-12-20T14:42:53.697Z,25.23
2022-12-20T14:49:30.988Z,28.40
2022-12-20T14:52:15.502Z,28.85
2022-12-20T14:55:14.487Z,32.35
2022-12-20T14:58:29.411Z,32.28
2022-12-20T15:01:20.080Z,30.98
2022-12-20T15:04:14.770Z,33.23
2022-12-20T15:06:48.505Z,28.95
2022-12-20T15:09:41.674Z,26.13
2022-12-20T15:16:49.426Z,23.75
2022-12-20T15:19:17.454Z,18.90
2022-12-20T15:21:51.937Z,19.42
2022-12-20T15:24:25.092Z,20.67
2022-12-20T15:26:53.806Z,21.45
2022-12-20T15:29:27.961Z,47.58
2022-12-20T15:36:38.835Z,37.38
2022-12-20T15:39:15.236Z,41.55
2022-12-20T15:42:33.972Z,41.78
2022-12-20T15:45:02.896Z,37.15
2022-12-20T15:47:30.703Z,37.13
2022-12-20T15:54:36.491Z,33.45
2022-12-20T15:57:57.038Z,31.13
2022-12-20T16:00:26.533Z,30.23
2022-12-20T16:02:57.202Z,32.63
2022-12-20T16:09:56.255Z,28.33
2022-12-20T16:12:30.833Z,25.60
2022-12-20T16:14:59.072Z,26.80
2022-12-20T16:27:00.821Z,22.90
2022-12-20T16:29:29.413Z,23.58
2022-12-20T16:31:57.712Z,27.30
2022-12-20T16:35:42.297Z,36.37
2022-12-20T16:38:10.392Z,21.35
2022-12-20T16:40:38.704Z,24.38
2022-12-20T16:43:06.874Z,29.30
2022-12-20T16:45:35.100Z,26.25
2022-12-20T16:48:02.999Z,26.60
2022-12-20T16:50:31.306Z,20.60
2022-12-20T16:52:59.212Z,22.00
2022-12-20T16:55:28.508Z,22.10
2022-12-20T17:19:42.142Z,19.13
2022-12-20T17:27:12.294Z,16.95
2022-12-20T17:30:02.316Z,19.85
2022-12-20T17:32:30.618Z,18.42
2022-12-20T17:40:25.052Z,16.37
2022-12-20T17:55:44.660Z,17.23
2022-12-20T17:58:13.273Z,19.70
2022-12-20T18:05:14.017Z,21.70
2022-12-20T18:12:18.327Z,32.97
2022-12-20T18:14:54.881Z,29.83
2022-12-20T18:18:22.248Z,31.08
2022-12-20T18:29:46.873Z,24.75
2022-12-20T18:32:38.067Z,23.80
2022-12-20T18:35:07.236Z,21.75
2022-12-20T18:37:44.377Z,21.02
2022-12-20T18:42:23.726Z,20.85
2022-12-20T18:46:53.485Z,18.08
2022-12-20T18:53:01.291Z,20.05
2022-12-20T19:00:30.259Z,24.10
2022-12-20T19:03:03.713Z,18.50
2022-12-20T19:05:35.981Z,18.37
2022-12-20T19:09:22.704Z,23.70
2022-12-20T19:11:57.349Z,21.55
2022-12-20T19:14:26.361Z,22.35
2022-12-20T19:22:17.631Z,19.13
2022-12-20T19:24:45.522Z,18.40
2022-12-20T19:27:13.617Z,21.20
2022-12-20T19:35:55.019Z,20.20
2022-12-20T19:38:18.754Z,20.20
2022-12-20T19:40:54.261Z,18.95
2022-12-20T19:43:49.176Z,19.17
2022-12-20T19:46:26.563Z,20.20
2022-12-20T19:48:58.402Z,19.75
2022-12-20T19:51:28.785Z,17.93
2022-12-20T20:11:38.934Z,22.17
2022-12-20T20:14:09.663Z,23.77
2022-12-20T20:21:14.984Z,18.65
2022-12-20T20:23:42.858Z,18.15
2022-12-20T20:26:14.884Z,19.67
2022-12-20T20:28:45.309Z,19.83
2022-12-20T20:31:16.023Z,20.75
2022-12-20T20:33:44.279Z,19.45
2022-12-20T20:36:21.527Z,19.90
2022-12-20T20:38:53.293Z,17.80
2022-12-20T20:41:24.061Z,17.10
2022-12-20T20:44:15.874Z,17.73
2022-12-20T20:51:13.613Z,20.55
2022-12-20T20:53:41.820Z,18.93
2022-12-20T20:56:10.926Z,19.95
2022-12-20T20:59:33.722Z,18.63
2022-12-20T21:02:02.022Z,21.92
2022-12-20T21:04:29.952Z,23.05
2022-12-20T21:16:27.935Z,15.98
2022-12-20T21:18:57.833Z,14.88
2022-12-20T21:21:27.427Z,17.08
2022-12-20T21:32:35.352Z,15.90
2022-12-20T21:35:03.276Z,15.27
2022-12-20T21:46:57.806Z,15.82
2022-12-20T22:03:26.761Z,14.23
2022-12-20T22:05:56.681Z,16.98
2022-12-20T22:08:26.928Z,18.45
2022-12-20T22:11:00.484Z,17.23
2022-12-20T22:14:18.627Z,15.82
2022-12-20T22:16:46.648Z,16.77
2022-12-20T22:19:15.910Z,15.80
2022-12-20T22:23:00.515Z,17.90
2022-12-20T22:25:29.415Z,14.73
2022-12-20T22:27:57.088Z,16.30
2022-12-20T22:39:09.185Z,16.50
2022-12-20T22:41:37.227Z,15.05
2022-12-20T22:53:57.455Z,15.80
2022-12-20T22:56:26.287Z,18.00
2022-12-20T22:58:54.504Z,21.30
2022-12-20T23:01:51.925Z,20.25
2022-12-20T23:04:20.336Z,21.47
2022-12-20T23:06:48.103Z,22.25
2022-12-20T23:14:32.689Z,23.85
2022-12-20T23:26:09.823Z,22.33
2022-12-20T23:28:37.581Z,25.42
2022-12-20T23:31:07.402Z,25.13
2022-12-20T23:34:02.897Z,24.48
2022-12-20T23:36:33.507Z,23.93
2022-12-20T23:39:01.901Z,24.95
2022-12-20T23:41:35.064Z,24.85
2022-12-20T23:44:07.251Z,25.33
2022-12-20T23:46:35.689Z,26.52
2022-12-20T23:53:07.856Z,24.90
2022-12-20T23:59:13.700Z,25.60
